Time;durP1;ratioP1;P1;durP2;ratioP2;P2;SDS_P1;SDS_P2;PMS_P1;PMS_P2;Temp;Humidity;BMP_temperature;BMP_pressure;BME280_temperature;BME280_humidity;BME280_pressure;Samples;Min_cycle;Max_cycle;Signal;HPM_P1;HPM_P2
2021/04/01 00:00:11;;;;;;;11.48;5.20;;;9.70;99.90;;;9.54;65.51;98008.00;170593;29;990;-67
2021/04/01 00:00:20;;;;;;;10.99;5.20;;;9.70;99.90;;;9.56;64.67;98010.53;171791;28;3165;-66
2021/04/01 00:00:33;;;;;;;11.58;5.35;;;9.70;99.90;;;9.59;63.77;98015.56;170516;28;2576;-69
2021/04/01 00:00:48;;;;;;;10.90;5.46;;;9.70;99.90;;;9.59;63.34;98007.50;171184;28;1241;-67
2021/04/01 00:00:54;;;;;;;10.69;5.51;;;9.70;99.90;;;9.67;63.13;98020.94;171856;28;1481;-66
2021/04/01 00:01:10;;;;;;;10.80;5.48;;;9.70;99.90;;;9.66;62.52;98013.88;172602;28;1037;-66
2021/04/01 00:01:17;;;;;;;11.59;5.70;;;9.80;99.90;;;9.61;63.23;98008.16;170598;29;1207;-67
2021/04/01 00:01:23;;;;;;;11.73;5.80;;;9.80;99.90;;;9.69;62.88;98017.06;171349;28;1034;-67
2021/04/01 00:01:29;;;;;;;11.90;5.90;;;9.80;99.90;;;9.70;63.67;98015.22;170612;29;876;-67
2021/04/01 00:01:35;;;;;;;11.10;5.90;;;9.80;99.90;;;9.67;64.37;98013.72;170644;29;999;-66
2021/04/01 00:01:44;;;;;;;10.50;5.68;;;9.80;99.90;;;9.67;64.90;98020.94;171274;28;1530;-66
2021/04/01 00:01:50;;;;;;;9.83;5.70;;;9.80;99.90;;;9.63;64.71;98009.69;171865;28;1718;-66
2021/04/01 00:01:56;;;;;;;10.20;5.72;;;9.80;99.90;;;9.65;65.37;98021.09;169958;29;1096;-67
2021/04/01 00:02:06;;;;;;;10.37;5.57;;;9.80;99.90;;;9.62;64.58;98013.38;171215;28;1540;-66
2021/04/01 00:02:19;;;;;;;10.65;5.70;;;9.80;99.90;;;9.64;64.45;98014.03;171973;28;1134;-67
2021/04/01 00:02:29;;;;;;;11.32;5.64;;;9.80;99.90;;;9.63;64.86;98007.00;169790;28;1356;-66
2021/04/01 00:02:37;;;;;;;11.10;5.57;;;9.80;99.90;;;9.59;64.79;98010.19;169859;29;1214;-67
2021/04/01 00:02:51;;;;;;;11.13;5.63;;;9.70;99.90;;;9.62;64.96;98012.53;170572;29;1279;-66
2021/04/01 00:02:57;;;;;;;10.38;5.50;;;9.70;99.90;;;9.61;65.14;98002.78;170553;29;1240;-67
2021/04/01 00:03:04;;;;;;;9.70;5.47;;;9.70;99.90;;;9.60;65.03;98006.50;170625;29;967;-68
2021/04/01 00:03:10;;;;;;;9.37;5.30;;;9.70;99.90;;;9.58;64.80;98005.84;169257;29;1311;-66
2021/04/01 00:03:17;;;;;;;9.35;5.43;;;9.70;99.90;;;9.62;64.74;98015.22;170694;29;895;-66
2021/04/01 00:03:23;;;;;;;9.13;5.47;;;9.70;99.90;;;9.62;64.82;98016.06;171204;28;1303;-67
2021/04/01 00:03:28;;;;;;;9.45;5.60;;;9.70;99.90;;;9.54;64.44;98007.16;170680;29;939;-68
2021/04/01 00:03:35;;;;;;;9.25;5.63;;;9.70;99.90;;;9.57;64.11;98013.06;169256;29;1320;-66
2021/04/01 00:03:47;;;;;;;9.23;5.63;;;9.70;99.90;;;9.58;63.38;98009.38;170013;29;953;-67
2021/04/01 00:03:53;;;;;;;8.99;5.45;;;9.70;99.90;;;9.64;64.17;98023.94;170522;28;2972;-68
2021/04/01 00:03:58;;;;;;;8.68;5.40;;;9.70;99.90;;;9.54;65.05;98007.16;170420;29;1283;-67
2021/04/01 00:04:04;;;;;;;8.05;5.40;;;9.70;99.90;;;9.56;65.49;98008.69;169319;29;939;-66
2021/04/01 00:04:11;;;;;;;8.20;5.57;;;9.70;99.90;;;9.55;65.35;98006.16;170626;28;1389;-66
2021/04/01 00:04:17;;;;;;;9.77;5.70;;;9.70;99.90;;;9.54;64.66;98012.53;171327;28;949;-66
2021/04/01 00:04:23;;;;;;;10.65;5.57;;;9.70;99.90;;;9.58;64.77;98013.91;171320;28;1023;-66
2021/04/01 00:04:29;;;;;;;11.15;5.57;;;9.70;99.90;;;9.58;64.52;98013.91;171810;28;1420;-67
2021/04/01 00:04:35;;;;;;;11.68;5.55;;;9.70;99.90;;;9.57;64.82;98014.91;171283;28;856;-67
2021/04/01 00:04:43;;;;;;;12.40;5.75;;;9.70;99.90;;;9.53;65.04;98005.50;171275;28;951;-67
2021/04/01 00:04:49;;;;;;;11.50;5.93;;;9.70;99.90;;;9.54;64.98;98007.16;170524;29;979;-66
2021/04/01 00:04:56;;;;;;;13.05;6.13;;;9.70;99.90;;;9.55;65.02;98011.53;169237;29;876;-66
2021/04/01 00:05:06;;;;;;;16.20;6.25;;;9.70;99.90;;;9.58;65.00;98016.59;169947;29;972;-66
2021/04/01 00:05:13;;;;;;;15.99;6.24;;;9.70;99.90;;;9.57;64.91;98012.22;170545;29;1301;-66
2021/04/01 00:05:26;;;;;;;15.33;6.07;;;9.70;99.90;;;9.55;64.75;98014.22;170648;29;922;-66
2021/04/01 00:05:33;;;;;;;12.14;5.94;;;9.60;99.90;;;9.49;64.82;97998.75;169939;29;1238;-67
2021/04/01 00:05:39;;;;;;;10.18;6.08;;;9.60;99.90;;;9.52;64.58;98015.41;169865;28;1224;-67
2021/04/01 00:05:45;;;;;;;10.37;6.00;;;9.60;99.90;;;9.54;64.06;98015.22;170019;29;936;-67
2021/04/01 00:05:51;;;;;;;10.48;6.15;;;9.70;99.90;;;9.47;63.91;98004.31;171185;28;1397;-67
2021/04/01 00:05:56;;;;;;;10.75;6.05;;;9.70;99.90;;;9.54;64.38;98012.53;171138;28;939;-67
2021/04/01 00:06:03;;;;;;;10.52;5.80;;;9.70;99.90;;;9.43;63.81;97988.69;171969;28;939;-66
2021/04/01 00:06:09;;;;;;;10.40;5.57;;;9.70;99.90;;;9.58;63.75;98014.75;171231;28;1162;-66
2021/04/01 00:06:16;;;;;;;10.27;5.38;;;9.70;99.90;;;9.52;63.83;98004.66;171318;28;1006;-66
2021/04/01 00:06:21;;;;;;;10.27;5.13;;;9.70;99.90;;;9.61;63.18;98009.03;169981;29;897;-66
2021/04/01 00:06:27;;;;;;;11.05;5.05;;;9.70;99.90;;;9.59;63.07;98002.97;169313;29;1176;-67
2021/04/01 00:06:33;;;;;;;10.98;5.05;;;9.70;99.90;;;9.61;63.08;98006.31;169945;29;898;-66
2021/04/01 00:06:39;;;;;;;10.68;5.10;;;9.70;99.90;;;9.61;63.02;98000.09;170583;29;1320;-66
2021/04/01 00:06:45;;;;;;;10.68;5.13;;;9.70;99.90;;;9.55;62.46;97998.94;171237;28;1592;-66
2021/04/01 00:06:51;;;;;;;10.50;5.40;;;9.70;99.90;;;9.65;63.09;98007.66;171087;28;1040;-67
2021/04/01 00:06:57;;;;;;;10.25;5.57;;;9.70;99.90;;;9.57;63.13;97991.56;169173;29;987;-67
2021/04/01 00:07:03;;;;;;;11.37;5.57;;;9.70;99.90;;;9.63;63.05;98011.53;169934;29;925;-67
2021/04/01 00:07:12;;;;;;;11.67;5.63;;;9.70;99.90;;;9.61;62.72;98010.84;170436;29;1426;-67
2021/04/01 00:07:18;;;;;;;11.68;5.77;;;9.70;99.90;;;9.59;62.83;97997.59;170511;29;1646;-67
2021/04/01 00:07:24;;;;;;;11.18;5.68;;;9.70;99.90;;;9.59;63.11;98005.66;170580;29;900;-67
2021/04/01 00:07:30;;;;;;;10.88;5.63;;;9.70;99.90;;;9.64;63.32;98010.50;169958;29;979;-66
2021/04/01 00:07:36;;;;;;;10.57;5.65;;;9.70;99.90;;;9.60;63.59;98007.31;169997;29;888;-67
2021/04/01 00:07:42;;;;;;;10.43;5.68;;;9.70;99.90;;;9.57;63.28;97996.94;170763;28;2194;-66
2021/04/01 00:07:48;;;;;;;10.93;5.72;;;9.70;99.90;;;9.58;63.75;97997.78;170616;29;1010;-66
2021/04/01 00:07:54;;;;;;;11.88;5.90;;;9.70;99.90;;;9.52;64.00;97996.59;170616;29;1077;-66
2021/04/01 00:08:01;;;;;;;11.66;5.98;;;9.70;99.90;;;9.59;63.79;98008.34;171255;28;1095;-66
2021/04/01 00:08:07;;;;;;;11.23;5.93;;;9.70;99.90;;;9.59;64.40;98010.19;172541;28;1145;-68
2021/04/01 00:08:13;;;;;;;11.75;5.97;;;9.70;99.90;;;9.54;64.18;97999.94;171914;28;933;-67
2021/04/01 00:08:19;;;;;;;12.57;6.10;;;9.70;99.90;;;9.59;64.33;98005.66;169994;29;963;-67
2021/04/01 00:08:25;;;;;;;12.43;6.15;;;9.70;99.90;;;9.49;64.57;97993.38;170558;29;1624;-67
2021/04/01 00:08:31;;;;;;;13.30;6.20;;;9.70;99.90;;;9.52;65.16;97993.91;171293;28;1041;-67
2021/04/01 00:08:37;;;;;;;13.65;6.22;;;9.70;99.90;;;9.52;65.37;97993.06;170640;29;848;-66
2021/04/01 00:08:43;;;;;;;12.93;6.20;;;9.70;99.90;;;9.54;65.10;97997.25;169326;29;947;-67
2021/04/01 00:08:49;;;;;;;12.60;6.15;;;9.70;99.90;;;9.58;65.06;98008.53;169978;29;930;-67
2021/04/01 00:08:55;;;;;;;12.35;6.00;;;9.70;99.90;;;9.57;65.38;98012.22;171162;28;1249;-66
2021/04/01 00:09:01;;;;;;;10.73;5.80;;;9.70;99.90;;;9.56;65.31;98005.16;170578;28;1070;-68
2021/04/01 00:09:07;;;;;;;10.50;5.88;;;9.70;99.90;;;9.52;65.58;98001.13;170641;29;1081;-69
2021/04/01 00:09:13;;;;;;;10.45;5.65;;;9.70;99.90;;;9.55;65.02;98012.38;171047;28;2158;-66
2021/04/01 00:09:19;;;;;;;9.07;5.53;;;9.70;99.90;;;9.54;65.54;98007.16;170331;29;1018;-67
2021/04/01 00:09:25;;;;;;;8.73;5.68;;;9.70;99.90;;;9.49;65.09;98002.28;170406;29;1169;-67
2021/04/01 00:09:31;;;;;;;9.20;5.72;;;9.70;99.90;;;9.50;65.44;98003.13;170606;29;866;-67
2021/04/01 00:09:36;;;;;;;9.02;5.68;;;9.60;99.90;;;9.52;65.13;98007.34;170001;29;944;-66
2021/04/01 00:09:42;;;;;;;11.23;6.20;;;9.60;99.90;;;9.52;65.45;98003.81;170640;29;1010;-66
2021/04/01 00:09:49;;;;;;;12.07;6.05;;;9.60;99.90;;;9.46;64.93;97999.94;170647;29;895;-67
2021/04/01 00:09:55;;;;;;;11.90;5.90;;;9.60;99.90;;;9.38;65.25;97989.19;169974;29;1410;-66
2021/04/01 00:10:07;;;;;;;12.47;5.90;;;9.60;99.90;;;9.48;65.17;98003.28;169974;29;909;-66
2021/04/01 00:10:18;;;;;;;11.30;5.64;;;9.60;99.90;;;9.42;65.37;98003.13;171894;28;1197;-67
2021/04/01 00:10:32;;;;;;;10.40;5.63;;;9.60;99.90;;;9.45;65.45;97997.41;171984;28;1387;-66
2021/04/01 00:10:43;;;;;;;10.38;5.63;;;9.60;99.90;;;9.43;65.84;97999.44;171711;28;1228;-69
2021/04/01 00:10:49;;;;;;;11.89;5.83;;;9.60;99.90;;;9.40;65.76;97995.22;170608;29;1225;-67
2021/04/01 00:10:55;;;;;;;11.63;5.72;;;9.60;99.90;;;9.41;66.20;97998.75;169300;29;1765;-68
2021/04/01 00:11:01;;;;;;;11.90;5.70;;;9.60;99.90;;;9.41;65.63;97990.69;171134;28;959;-66
2021/04/01 00:11:12;;;;;;;11.10;5.67;;;9.60;99.90;;;9.43;65.37;98004.81;170548;28;1271;-67
2021/04/01 00:11:19;;;;;;;10.08;5.36;;;9.60;99.90;;;9.38;65.13;97997.25;170555;29;2099;-68
2021/04/01 00:11:24;;;;;;;9.60;5.60;;;9.60;99.90;;;9.41;65.40;98004.13;170706;29;840;-67
2021/04/01 00:11:31;;;;;;;10.35;5.80;;;9.60;99.90;;;9.35;65.58;97998.44;171148;28;1169;-67
2021/04/01 00:11:37;;;;;;;10.75;5.88;;;9.60;99.90;;;9.37;65.74;97992.91;171920;28;938;-66
2021/04/01 00:11:43;;;;;;;11.05;6.03;;;9.60;99.90;;;9.32;65.39;97990.72;171296;28;1014;-67
2021/04/01 00:11:49;;;;;;;11.10;5.97;;;9.50;99.90;;;9.37;65.62;98001.81;171309;28;934;-67
2021/04/01 00:11:55;;;;;;;11.85;5.90;;;9.50;99.90;;;9.38;65.28;97998.09;169976;29;947;-67
2021/04/01 00:12:01;;;;;;;11.30;5.88;;;9.60;99.90;;;9.37;65.39;97999.13;170342;29;1711;-67
2021/04/01 00:12:08;;;;;;;11.15;5.70;;;9.60;99.90;;;9.36;65.67;97993.91;171318;28;895;-67
2021/04/01 00:12:14;;;;;;;11.20;5.60;;;9.50;99.90;;;9.35;65.98;97993.06;171688;28;1271;-67
2021/04/01 00:12:20;;;;;;;10.55;5.50;;;9.50;99.90;;;9.36;65.89;97999.28;171183;28;1552;-67
2021/04/01 00:12:26;;;;;;;11.00;5.63;;;9.50;99.90;;;9.36;65.84;97996.59;172627;28;932;-66
2021/04/01 00:12:32;;;;;;;11.10;5.70;;;9.50;99.90;;;9.36;65.61;97999.28;172414;28;1077;-67
2021/04/01 00:12:38;;;;;;;10.98;5.63;;;9.50;99.90;;;9.39;65.73;98004.28;171235;28;1910;-66
2021/04/01 00:12:44;;;;;;;10.52;5.57;;;9.50;99.90;;;9.37;65.81;98000.97;171977;28;943;-68
2021/04/01 00:12:50;;;;;;;10.65;5.57;;;9.50;99.90;;;9.35;65.88;97997.59;171846;28;1306;-66
2021/04/01 00:12:56;;;;;;;11.55;5.28;;;9.50;99.90;;;9.33;65.32;98000.44;171855;28;1191;-67
2021/04/01 00:13:03;;;;;;;12.23;5.05;;;9.50;99.90;;;9.34;65.28;97996.75;171261;28;852;-67
2021/04/01 00:13:10;;;;;;;14.07;5.30;;;9.50;99.90;;;9.29;65.62;97987.50;171965;28;1089;-67
2021/04/01 00:13:16;;;;;;;14.50;5.36;;;9.50;99.90;;;9.23;65.56;97975.56;171899;28;918;-66
2021/04/01 00:13:22;;;;;;;13.65;5.40;;;9.50;99.90;;;9.38;65.36;98002.63;171220;28;986;-66
2021/04/01 00:13:28;;;;;;;10.53;5.43;;;9.50;99.90;;;9.40;65.57;98000.59;171271;28;910;-67
2021/04/01 00:13:34;;;;;;;9.77;5.32;;;9.50;99.90;;;9.34;65.90;97996.75;171286;28;868;-66
2021/04/01 00:13:40;;;;;;;9.27;5.20;;;9.50;99.90;;;9.38;65.72;97998.09;171338;28;990;-67
2021/04/01 00:13:46;;;;;;;9.10;5.30;;;9.50;99.90;;;9.32;65.19;97989.88;171952;28;1270;-66
2021/04/01 00:13:52;;;;;;;9.18;5.32;;;9.50;99.90;;;9.34;64.91;97991.38;171318;28;946;-67
2021/04/01 00:14:01;;;;;;;10.00;5.50;;;9.50;99.90;;;9.30;64.82;97983.81;171169;28;1046;-67
2021/04/01 00:14:07;;;;;;;11.70;5.73;;;9.50;99.90;;;9.35;65.01;97995.75;171288;28;860;-67
2021/04/01 00:14:13;;;;;;;11.60;5.73;;;9.50;99.90;;;9.36;65.25;97992.06;172645;28;919;-67
2021/04/01 00:14:21;;;;;;;11.43;5.72;;;9.50;99.90;;;9.43;65.95;98004.81;171220;28;1002;-67
2021/04/01 00:14:27;;;;;;;11.22;5.63;;;9.50;99.90;;;9.39;65.66;97998.91;171252;28;1336;-67
2021/04/01 00:14:34;;;;;;;9.27;5.60;;;9.50;99.90;;;9.30;65.62;97987.34;172637;28;1038;-66
2021/04/01 00:14:41;;;;;;;9.22;5.60;;;9.60;99.90;;;9.31;65.88;97997.09;170507;28;1704;-67
2021/04/01 00:14:48;;;;;;;8.90;5.45;;;9.50;99.90;;;9.30;66.69;97999.94;169881;29;1437;-66
2021/04/01 00:14:54;;;;;;;8.73;5.23;;;9.50;99.90;;;9.32;66.52;97997.94;169896;28;1221;-67
2021/04/01 00:15:00;;;;;;;8.23;5.18;;;9.50;99.90;;;9.29;65.93;97990.19;170591;29;1029;-67
2021/04/01 00:15:10;;;;;;;8.05;5.00;;;9.50;99.90;;;9.33;66.03;97994.22;170439;28;2293;-67
2021/04/01 00:15:16;;;;;;;7.80;5.04;;;9.50;99.90;;;9.21;65.92;97972.22;170472;28;1366;-66
2021/04/01 00:15:23;;;;;;;8.43;5.37;;;9.50;99.90;;;9.39;64.69;98001.59;170648;29;900;-67
2021/04/01 00:15:30;;;;;;;9.38;5.40;;;9.50;99.90;;;9.37;64.62;97995.59;170532;29;1511;-66
2021/04/01 00:15:41;;;;;;;9.43;5.47;;;9.60;99.90;;;9.35;64.42;97987.69;170444;29;1417;-66
2021/04/01 00:15:47;;;;;;;9.52;5.34;;;9.50;99.90;;;9.34;65.12;97988.69;170495;28;1476;-67
2021/04/01 00:15:57;;;;;;;9.00;5.20;;;9.60;99.90;;;9.38;65.37;98000.75;171201;28;1407;-68
2021/04/01 00:16:04;;;;;;;7.77;5.19;;;9.60;99.90;;;9.35;65.45;97993.06;171265;28;1212;-66
2021/04/01 00:16:11;;;;;;;8.80;5.67;;;9.50;99.90;;;9.40;66.02;98000.59;170527;29;1510;-66
2021/04/01 00:16:19;;;;;;;8.83;5.67;;;9.50;99.90;;;9.34;65.75;97999.44;171996;28;921;-66
2021/04/01 00:16:25;;;;;;;9.70;5.63;;;9.50;99.90;;;9.39;65.91;97999.75;171927;28;992;-66
2021/04/01 00:16:35;;;;;;;10.43;5.82;;;9.50;99.90;;;9.26;66.07;97980.63;171949;28;906;-66
2021/04/01 00:16:41;;;;;;;10.60;5.86;;;9.50;99.90;;;9.38;66.31;98005.28;171309;28;1455;-66
2021/04/01 00:16:47;;;;;;;10.82;6.00;;;9.50;99.90;;;9.31;66.42;97994.41;171329;28;1093;-66
2021/04/01 00:16:53;;;;;;;11.05;6.13;;;9.50;99.90;;;9.30;66.06;97983.81;169939;29;971;-67
2021/04/01 00:17:00;;;;;;;11.35;6.13;;;9.50;99.90;;;9.34;65.71;97999.44;169283;29;876;-67
2021/04/01 00:17:08;;;;;;;11.58;6.08;;;9.50;99.90;;;9.26;65.71;97971.72;171143;28;1323;-66
2021/04/01 00:17:14;;;;;;;11.23;5.78;;;9.50;99.90;;;9.24;65.73;97982.63;171192;28;1012;-67
2021/04/01 00:17:21;;;;;;;10.93;5.67;;;9.50;99.90;;;9.25;65.72;97992.38;172561;28;1079;-67
2021/04/01 00:17:27;;;;;;;10.38;5.50;;;9.50;99.90;;;9.22;66.06;97986.50;170597;29;904;-66
2021/04/01 00:17:35;;;;;;;10.20;5.32;;;9.50;99.90;;;9.25;66.19;98000.44;171178;28;1603;-67
2021/04/01 00:17:43;;;;;;;9.92;5.27;;;9.50;99.90;;;9.22;66.07;97998.06;170612;29;935;-66
2021/04/01 00:17:49;;;;;;;11.10;5.47;;;9.50;99.90;;;9.18;65.27;97990.50;171937;28;930;-66
2021/04/01 00:17:55;;;;;;;11.20;5.43;;;9.50;99.90;;;9.26;65.68;98004.81;170643;29;1067;-66
2021/04/01 00:18:02;;;;;;;10.73;5.55;;;9.50;99.90;;;9.21;65.42;97990.19;171962;28;991;-66
2021/04/01 00:18:10;;;;;;;11.68;5.66;;;9.50;99.90;;;9.26;65.47;97996.75;171127;28;1154;-67
2021/04/01 00:18:20;;;;;;;11.44;5.94;;;9.50;99.90;;;9.25;65.50;97995.06;171939;28;1092;-67
2021/04/01 00:18:26;;;;;;;12.17;6.23;;;9.50;99.90;;;9.21;64.49;97982.13;171278;28;1045;-66
2021/04/01 00:18:32;;;;;;;12.65;6.38;;;9.50;99.90;;;9.21;64.91;97990.19;169339;29;932;-67
2021/04/01 00:18:38;;;;;;;10.85;6.43;;;9.50;99.90;;;9.19;64.67;97984.13;169989;29;995;-66
2021/04/01 00:18:44;;;;;;;10.98;6.28;;;9.50;99.90;;;9.19;65.18;97984.97;171186;28;1403;-66
2021/04/01 00:18:50;;;;;;;10.98;5.93;;;9.40;99.90;;;9.22;65.42;97983.81;171952;28;1054;-67
2021/04/01 00:18:56;;;;;;;9.85;5.75;;;9.50;99.90;;;9.25;66.04;97992.38;170508;29;1175;-67
2021/04/01 00:19:03;;;;;;;9.75;5.57;;;9.50;99.90;;;9.23;66.02;97996.22;170620;29;928;-66
2021/04/01 00:19:09;;;;;;;10.22;5.64;;;9.50;99.90;;;9.25;66.14;98000.44;169905;29;1039;-68
2021/04/01 00:19:16;;;;;;;9.52;5.60;;;9.50;99.90;;;9.19;66.35;97990.34;170650;29;1046;-66
2021/04/01 00:19:22;;;;;;;9.26;5.70;;;9.50;99.90;;;9.27;66.76;98001.09;170620;29;899;-66
2021/04/01 00:19:28;;;;;;;9.90;5.70;;;9.50;99.90;;;9.19;66.69;97990.34;170551;29;1433;-66
2021/04/01 00:19:35;;;;;;;10.15;5.60;;;9.50;99.90;;;9.27;65.48;97995.72;171309;28;911;-67
2021/04/01 00:19:41;;;;;;;10.44;5.32;;;9.50;99.90;;;9.24;64.84;97993.38;170552;28;1594;-66
2021/04/01 00:19:47;;;;;;;10.60;5.35;;;9.50;99.90;;;9.15;64.98;97977.41;169929;29;1049;-67
2021/04/01 00:19:53;;;;;;;12.23;5.72;;;9.50;99.90;;;9.23;65.29;97991.69;170546;28;1208;-66
2021/04/01 00:19:59;;;;;;;12.95;6.07;;;9.50;99.90;;;9.26;65.50;97993.22;170612;29;935;-66
2021/04/01 00:20:10;;;;;;;13.43;6.50;;;9.50;99.90;;;9.26;65.66;97996.75;170628;29;996;-69
2021/04/01 00:20:17;;;;;;;13.03;6.81;;;9.50;99.90;;;9.21;65.53;97993.72;170541;29;1379;-66
2021/04/01 00:20:23;;;;;;;11.67;6.70;;;9.50;99.90;;;9.20;65.50;97992.03;171932;28;977;-67
2021/04/01 00:20:29;;;;;;;11.25;6.60;;;9.40;99.90;;;9.26;65.37;97996.75;171841;28;924;-66
2021/04/01 00:20:35;;;;;;;11.40;6.65;;;9.50;99.90;;;9.22;65.38;97994.56;171303;28;911;-66
2021/04/01 00:20:42;;;;;;;12.37;6.57;;;9.40;99.90;;;9.21;65.15;97982.97;170460;28;1419;-67
2021/04/01 00:20:47;;;;;;;12.96;6.56;;;9.50;99.90;;;9.21;65.90;97990.19;170523;28;1611;-67
2021/04/01 00:20:54;;;;;;;12.88;6.22;;;9.50;99.90;;;9.25;66.05;97995.06;171284;28;871;-67
2021/04/01 00:21:00;;;;;;;12.90;6.10;;;9.50;99.90;;;9.23;65.15;97991.69;171298;28;1002;-66
2021/04/01 00:21:05;;;;;;;12.03;5.70;;;9.50;99.90;;;9.24;64.69;97996.06;170703;29;907;-67
2021/04/01 00:21:11;;;;;;;10.82;5.60;;;9.50;99.90;;;9.25;64.75;97992.38;170156;29;1338;-69
2021/04/01 00:21:17;;;;;;;10.60;5.77;;;9.40;99.90;;;9.26;64.94;97988.69;171300;28;868;-66
2021/04/01 00:21:23;;;;;;;10.52;5.85;;;9.50;99.90;;;9.22;64.54;97987.31;171197;28;1228;-67
2021/04/01 00:21:29;;;;;;;9.95;5.90;;;9.50;99.90;;;9.28;64.33;97988.50;170678;28;1856;-68
2021/04/01 00:21:35;;;;;;;9.97;5.83;;;9.50;99.90;;;9.22;64.65;97981.13;171113;28;2065;-66
2021/04/01 00:21:41;;;;;;;10.52;5.95;;;9.50;99.90;;;9.21;64.80;97979.44;170020;29;888;-66
2021/04/01 00:21:47;;;;;;;10.43;5.68;;;9.50;99.90;;;9.29;64.35;97995.56;170482;28;1650;-67
2021/04/01 00:21:53;;;;;;;9.98;5.53;;;9.50;99.90;;;9.29;63.95;97992.88;169908;29;937;-67
2021/04/01 00:22:00;;;;;;;9.93;5.45;;;9.50;99.90;;;9.29;64.15;97990.19;170404;29;1144;-66
2021/04/01 00:22:06;;;;;;;10.40;5.40;;;9.50;99.90;;;9.28;63.78;97986.66;170640;28;1494;-67
2021/04/01 00:22:12;;;;;;;10.02;5.50;;;9.50;99.90;;;9.30;63.23;97981.13;171308;28;927;-66
2021/04/01 00:22:17;;;;;;;10.02;5.60;;;9.50;99.90;;;9.36;63.79;97991.22;171335;28;880;-67
2021/04/01 00:22:23;;;;;;;9.70;5.60;;;9.50;99.90;;;9.40;63.64;97992.56;170671;29;983;-66
2021/04/01 00:22:29;;;;;;;9.70;5.82;;;9.50;99.90;;;9.32;63.77;97985.34;170577;29;975;-67
2021/04/01 00:22:35;;;;;;;9.53;6.00;;;9.50;99.90;;;9.37;63.51;97991.06;169282;29;892;-68
2021/04/01 00:22:42;;;;;;;9.73;6.00;;;9.50;99.90;;;9.39;63.68;97994.38;170009;29;919;-67
2021/04/01 00:22:48;;;;;;;9.92;6.02;;;9.50;99.90;;;9.43;63.41;97988.69;170639;29;962;-66
2021/04/01 00:22:54;;;;;;;10.63;6.00;;;9.50;99.90;;;9.41;63.41;97990.69;171965;28;951;-67
2021/04/01 00:23:00;;;;;;;10.70;6.07;;;9.50;99.90;;;9.39;64.10;97989.03;171899;28;1113;-67
2021/04/01 00:23:06;;;;;;;11.15;6.03;;;9.50;99.90;;;9.38;64.72;97990.03;170526;28;2924;-68
2021/04/01 00:23:13;;;;;;;11.60;6.05;;;9.50;99.90;;;9.34;64.16;97980.63;171800;28;1287;-66
2021/04/01 00:23:19;;;;;;;10.90;6.00;;;9.50;99.90;;;9.43;63.60;97989.50;169892;29;1518;-67
2021/04/01 00:23:25;;;;;;;10.57;6.00;;;9.50;99.90;;;9.39;63.81;97988.19;169979;29;843;-66
2021/04/01 00:23:31;;;;;;;10.65;5.85;;;9.50;99.90;;;9.41;63.60;97982.66;170484;28;1212;-66
2021/04/01 00:23:37;;;;;;;9.97;5.87;;;9.50;99.90;;;9.38;64.03;97978.44;170572;29;974;-66
2021/04/01 00:23:43;;;;;;;9.52;5.70;;;9.50;99.90;;;9.35;63.83;97976.94;168532;29;1809;-67
2021/04/01 00:23:49;;;;;;;10.32;5.75;;;9.50;99.90;;;9.41;64.53;97991.56;170984;28;1913;-66
2021/04/01 00:23:54;;;;;;;10.45;5.75;;;9.50;99.90;;;9.44;64.74;97987.66;172694;28;979;-66
2021/04/01 00:24:00;;;;;;;10.05;5.80;;;9.50;99.90;;;9.38;64.61;97981.97;172561;28;914;-67
2021/04/01 00:24:07;;;;;;;10.27;5.88;;;9.50;99.90;;;9.37;64.17;97985.69;171304;28;1050;-66
2021/04/01 00:24:13;;;;;;;10.83;6.00;;;9.50;99.90;;;9.43;64.87;97988.69;170643;29;947;-66
2021/04/01 00:24:20;;;;;;;10.65;6.00;;;9.50;99.90;;;9.41;64.46;97990.69;170262;28;1116;-66
2021/04/01 00:24:26;;;;;;;11.54;6.12;;;9.50;99.90;;;9.37;64.16;97985.69;170526;28;1315;-67
2021/04/01 00:24:32;;;;;;;11.45;6.10;;;9.50;99.90;;;9.37;63.94;97983.00;170626;29;1033;-67
2021/04/01 00:24:38;;;;;;;10.90;6.00;;;9.50;99.90;;;9.45;64.22;97998.25;171269;28;1010;-66
2021/04/01 00:24:44;;;;;;;12.07;5.95;;;9.60;99.90;;;9.44;64.54;98001.09;170590;28;852;-66
2021/04/01 00:24:50;;;;;;;12.82;6.00;;;9.50;99.90;;;9.38;65.43;97990.03;170684;29;1297;-66
2021/04/01 00:24:56;;;;;;;11.98;5.90;;;9.60;99.90;;;9.36;65.66;97992.06;170607;29;990;-67
2021/04/01 00:25:04;;;;;;;12.52;5.82;;;9.50;99.90;;;9.32;65.64;97988.03;170359;28;1379;-67
2021/04/01 00:25:15;;;;;;;13.47;6.00;;;9.50;99.90;;;9.29;65.86;97988.34;171906;28;1419;-67
2021/04/01 00:25:22;;;;;;;11.42;6.16;;;9.60;99.90;;;9.26;65.12;97986.00;171896;28;1245;-66
2021/04/01 00:25:28;;;;;;;11.54;6.20;;;9.50;99.90;;;9.26;64.51;97986.00;171936;28;935;-67
2021/04/01 00:25:34;;;;;;;11.48;6.20;;;9.50;99.90;;;9.32;64.87;97989.88;170526;29;1310;-68
2021/04/01 00:25:40;;;;;;;10.97;6.10;;;9.50;99.90;;;9.31;65.23;97990.88;170396;29;947;-68
2021/04/01 00:25:46;;;;;;;10.60;5.87;;;9.50;99.90;;;9.28;64.68;97981.28;170017;29;856;-67
2021/04/01 00:25:52;;;;;;;10.32;5.80;;;9.50;99.90;;;9.32;65.37;97996.09;171308;28;883;-67
2021/04/01 00:25:58;;;;;;;10.60;5.87;;;9.50;99.90;;;9.23;65.59;97974.72;171259;28;933;-66
2021/04/01 00:26:05;;;;;;;12.10;5.97;;;9.60;99.90;;;9.29;64.65;97982.13;171847;28;1264;-66
2021/04/01 00:26:11;;;;;;;12.58;6.06;;;9.50;99.90;;;9.32;64.50;97988.03;171288;28;1051;-66
2021/04/01 00:26:17;;;;;;;14.13;6.68;;;9.50;99.90;;;9.30;64.29;97983.81;171198;28;1323;-67
2021/04/01 00:26:23;;;;;;;14.77;7.18;;;9.50;99.90;;;9.26;64.15;97980.63;171218;28;1619;-68
2021/04/01 00:26:29;;;;;;;14.70;7.33;;;9.50;99.90;;;9.31;64.17;97980.13;169953;28;1333;-66
2021/04/01 00:26:35;;;;;;;14.40;7.22;;;9.50;99.90;;;9.29;64.55;97976.75;170270;29;1110;-67
2021/04/01 00:26:41;;;;;;;14.45;7.25;;;9.50;99.90;;;9.38;65.13;97992.72;170598;29;892;-66
2021/04/01 00:26:47;;;;;;;14.02;6.93;;;9.60;99.90;;;9.34;65.92;97986.00;170963;28;2421;-66
2021/04/01 00:26:53;;;;;;;13.47;6.70;;;9.50;99.90;;;9.31;65.24;97980.97;172001;28;875;-66
2021/04/01 00:26:59;;;;;;;13.18;6.55;;;9.50;99.90;;;9.34;64.51;97985.16;171216;28;922;-66
2021/04/01 00:27:07;;;;;;;12.73;6.65;;;9.50;99.90;;;9.34;64.82;97991.38;171152;28;1105;-69
2021/04/01 00:27:13;;;;;;;12.67;6.63;;;9.50;99.90;;;9.28;65.76;97973.22;171917;28;1153;-67
2021/04/01 00:27:18;;;;;;;13.00;6.68;;;9.60;99.90;;;9.28;65.81;97986.66;170164;29;1198;-67
2021/04/01 00:27:24;;;;;;;12.73;6.53;;;9.50;99.90;;;9.29;65.32;97985.66;169315;29;1453;-67
2021/04/01 00:27:30;;;;;;;12.43;6.55;;;9.60;99.90;;;9.27;66.12;97984.97;169302;29;865;-67
2021/04/01 00:27:36;;;;;;;13.90;6.75;;;9.50;99.90;;;9.25;66.21;97980.78;171917;28;968;-67
2021/04/01 00:27:42;;;;;;;16.00;7.25;;;9.50;99.90;;;9.29;65.67;97987.50;171937;28;1003;-66
2021/04/01 00:27:48;;;;;;;17.03;7.60;;;9.50;99.90;;;9.25;65.61;97981.63;171286;28;955;-67
2021/04/01 00:27:54;;;;;;;18.27;8.38;;;9.50;99.90;;;9.25;66.21;97978.09;171295;28;1026;-67
2021/04/01 00:28:00;;;;;;;20.23;9.18;;;9.50;99.90;;;9.22;66.25;97975.75;170019;29;943;-67
2021/04/01 00:28:07;;;;;;;20.05;9.75;;;9.50;99.90;;;9.25;65.83;97975.41;169504;29;1302;-67
2021/04/01 00:28:13;;;;;;;20.38;9.90;;;9.50;99.90;;;9.21;65.51;97980.28;171302;28;1101;-66
2021/04/01 00:28:18;;;;;;;21.70;10.07;;;9.50;99.90;;;9.23;65.10;97982.78;170532;29;1191;-66
2021/04/01 00:28:24;;;;;;;23.55;10.32;;;9.50;99.90;;;9.24;64.94;97987.16;170645;29;876;-66
2021/04/01 00:28:30;;;;;;;23.10;10.17;;;9.50;99.90;;;9.23;64.68;97983.63;171077;28;1336;-66
2021/04/01 00:28:36;;;;;;;22.90;9.77;;;9.50;99.90;;;9.19;65.09;97974.22;170760;28;2251;-67
2021/04/01 00:28:42;;;;;;;23.35;9.82;;;9.50;99.90;;;9.23;65.69;97986.31;170540;29;1291;-66
2021/04/01 00:28:49;;;;;;;21.03;9.40;;;9.50;99.90;;;9.23;66.62;97980.94;170694;29;939;-66
2021/04/01 00:28:55;;;;;;;20.77;8.93;;;9.50;99.90;;;9.25;66.72;97992.38;169873;29;1050;-67
2021/04/01 00:29:01;;;;;;;21.45;8.90;;;9.50;99.90;;;9.13;66.33;97974.88;170586;29;825;-67
2021/04/01 00:29:07;;;;;;;20.90;8.73;;;9.50;99.90;;;9.21;66.17;97991.03;171280;28;975;-67
2021/04/01 00:29:12;;;;;;;19.17;8.45;;;9.50;99.90;;;9.21;65.98;97991.03;171257;28;995;-66
2021/04/01 00:29:19;;;;;;;19.37;8.37;;;9.50;99.90;;;9.22;65.84;97987.31;171168;28;2021;-67
2021/04/01 00:29:26;;;;;;;17.30;8.17;;;9.50;99.90;;;9.17;65.68;97976.22;171908;28;2537;-66
2021/04/01 00:29:32;;;;;;;16.43;8.03;;;9.40;99.90;;;9.17;65.91;97976.22;170699;29;1022;-66